Samantha — VMQ9903 — position and weather

sailwx.info

Track history (hours):
 
Tides and Currents Weather Stations Pressure Air Temp Water Temp Dewpoint Dewpoint Depression Visibility Wind Speed Wind Dir Waves Ship Positions

Samantha

Last reported at 2016-Nov-06 10:30 UTC. Time now 2016-Dec-10 10:49 UTC.
Position S 21°55' E 150°28'.
Warning: this ship's position is 34 days out of date.

Length 22 m; draft 3.5 m.

Type: Tug. MMSI: 503540300.

Date/timePositionNaut miles runAvg speedWind from/ knotsBaromVisibWave heightAir tempDewpointWater temp
2016-Nov-06 10:30S 21°55' E 150°28'14 7.1
2016-Nov-06 08:33S 22°05' E 150°38'8 7.1
2016-Nov-06 07:29S 22°10' E 150°45'141 7.5
2016-Nov-05 12:33S 23°46' E 152°37'7 7.0
2016-Nov-05 11:32S 23°52' E 152°42'7 7.1
2016-Nov-05 10:33S 23°57' E 152°47'7 7.3
2016-Nov-05 09:33S 24°02' E 152°52'174 6.9
2016-Nov-04 08:21S 26°55' E 153°11'6 8.1
2016-Nov-04 07:33S 27°01' E 153°15'8 7.9
2016-Nov-04 06:33S 27°08' E 153°19'  
Track history (hours):
 
Tides and Currents Weather Stations Pressure Air Temp Water Temp Dewpoint Dewpoint Depression Visibility Wind Speed Wind Dir Waves Ship Positions

Samantha

Last reported at 2016-Nov-06 10:30 UTC. Time now 2016-Dec-10 10:49 UTC.
Position S 21°55' E 150°28'.
Warning: this ship's position is 34 days out of date.

Length 22 m; draft 3.5 m.

Type: Tug. MMSI: 503540300.

Date/timePositionNaut miles runAvg speedWind from/ knotsBaromVisibWave heightAir tempDewpointWater temp
2016-Nov-06 10:30S 21°55' E 150°28'14 7.1
2016-Nov-06 08:33S 22°05' E 150°38'8 7.1
2016-Nov-06 07:29S 22°10' E 150°45'141 7.5
2016-Nov-05 12:33S 23°46' E 152°37'7 7.0
2016-Nov-05 11:32S 23°52' E 152°42'7 7.1
2016-Nov-05 10:33S 23°57' E 152°47'7 7.3
2016-Nov-05 09:33S 24°02' E 152°52'174 6.9
2016-Nov-04 08:21S 26°55' E 153°11'6 8.1
2016-Nov-04 07:33S 27°01' E 153°15'8 7.9
2016-Nov-04 06:33S 27°08' E 153°19'  

Dump ship's entire track history